Time;durP1;ratioP1;P1;durP2;ratioP2;P2;SDS_P1;SDS_P2;PMS_P1;PMS_P2;Temp;Humidity;BMP_temperature;BMP_pressure;BME280_temperature;BME280_humidity;BME280_pressure;Samples;Min_cycle;Max_cycle;Signal;HPM_P1;HPM_P2
2023/02/01 00:00:05;;;;;;;42.35;4.45;;;;;;;6.51;100.00;101936.34;5011335;28;20026;-40
2023/02/01 00:02:30;;;;;;;56.90;4.63;;;;;;;6.50;100.00;101942.66;5025463;28;20044;-41
2023/02/01 00:04:55;;;;;;;49.40;4.35;;;;;;;6.48;100.00;101939.28;5023206;28;20022;-40
2023/02/01 00:07:20;;;;;;;48.28;4.40;;;;;;;6.44;100.00;101941.34;5027168;28;20064;-40
2023/02/01 00:09:46;;;;;;;49.20;4.43;;;;;;;6.39;100.00;101938.22;5030412;28;20025;-40
2023/02/01 00:12:11;;;;;;;50.83;4.93;;;;;;;6.39;100.00;101938.22;5016188;28;20034;-41
2023/02/01 00:14:39;;;;;;;47.70;4.07;;;;;;;6.38;100.00;101939.22;5010959;28;20576;-41
2023/02/01 00:17:06;;;;;;;48.78;4.32;;;;;;;6.36;100.00;101939.31;5011231;28;20109;-40
2023/02/01 00:19:32;;;;;;;62.17;5.07;;;;;;;6.40;100.00;101960.44;5028724;28;20025;-41
2023/02/01 00:21:57;;;;;;;54.70;5.85;;;;;;;6.42;100.00;101962.03;5031198;28;20029;-41
2023/02/01 00:24:23;;;;;;;44.83;5.07;;;;;;;6.41;100.00;101955.00;5016541;28;20386;-41
2023/02/01 00:26:48;;;;;;;52.08;4.63;;;;;;;6.38;100.00;101948.06;5018195;28;20370;-40
2023/02/01 00:29:16;;;;;;;50.83;5.82;;;;;;;6.36;100.00;101949.16;5029766;28;20430;-41
2023/02/01 00:31:41;;;;;;;45.00;4.75;;;;;;;6.34;100.00;101946.63;5030549;28;20042;-40
2023/02/01 00:34:08;;;;;;;38.28;3.95;;;;;;;6.30;100.00;101939.00;5029659;28;20436;-39
2023/02/01 00:36:34;;;;;;;36.90;4.03;;;;;;;6.27;100.00;101941.94;5026942;28;20033;-40
2023/02/01 00:38:59;;;;;;;66.53;5.15;;;;;;;6.30;100.00;101939.84;5025831;28;20048;-40
2023/02/01 00:41:25;;;;;;;55.85;5.22;;;;;;;6.30;100.00;101945.19;5030606;28;20021;-40
2023/02/01 00:43:50;;;;;;;52.53;4.45;;;;;;;6.29;100.00;101937.28;5019504;28;20669;-40
2023/02/01 00:46:17;;;;;;;44.58;5.00;;;;;;;6.28;100.00;101925.75;5020680;28;20120;-41
2023/02/01 00:48:43;;;;;;;53.53;5.13;;;;;;;6.30;100.00;101929.16;5029022;28;20692;-40
2023/02/01 00:51:11;;;;;;;38.25;4.50;;;;;;;6.29;100.00;101922.13;5029935;28;20117;-40
2023/02/01 00:53:37;;;;;;;57.83;5.35;;;;;;;6.33;100.00;101917.34;5022806;28;20025;-40
2023/02/01 00:56:03;;;;;;;42.97;4.90;;;;;;;6.35;100.00;101915.41;5011153;28;20163;-42
2023/02/01 00:58:28;;;;;;;48.83;3.92;;;;;;;6.35;100.00;101916.25;5026632;28;20049;-41
2023/02/01 01:01:08;;;;;;;52.13;5.68;;;;;;;6.38;100.00;101913.31;5018354;28;20080;-41
2023/02/01 01:03:36;;;;;;;56.92;5.20;;;;;;;6.37;100.00;101908.94;5011980;28;20087;-40
2023/02/01 01:06:04;;;;;;;45.00;3.95;;;;;;;6.35;100.00;101916.25;5015189;28;20030;-41
2023/02/01 01:08:30;;;;;;;55.10;6.40;;;;;;;6.37;100.00;101914.31;5011269;28;20030;-41
2023/02/01 01:10:55;;;;;;;52.75;5.20;;;;;;;6.39;100.00;101911.47;5013335;28;20091;-41
2023/02/01 01:13:21;;;;;;;51.58;5.22;;;;;;;6.37;100.00;101914.31;5030376;28;20110;-42
2023/02/01 01:15:46;;;;;;;48.15;4.53;;;;;;;6.42;100.00;101926.41;5031144;28;20112;-41
2023/02/01 01:18:11;;;;;;;61.80;6.07;;;;;;;6.44;100.00;101924.47;5028825;28;20060;-42
2023/02/01 01:20:39;;;;;;;50.75;4.30;;;;;;;6.44;100.00;101919.13;5031792;28;20121;-39
2023/02/01 01:23:05;;;;;;;52.55;6.60;;;;;;;6.44;100.00;101908.44;5029968;28;20105;-41
2023/02/01 01:25:30;;;;;;;53.20;4.68;;;;;;;6.44;100.00;101927.16;5012339;28;20030;-42
2023/02/01 01:27:56;;;;;;;50.13;4.97;;;;;;;6.43;100.00;101933.47;5022490;28;20049;-40
2023/02/01 01:30:21;;;;;;;54.55;6.72;;;;;;;6.42;100.00;101926.41;5030147;28;20362;-40
2023/02/01 01:32:46;;;;;;;65.53;7.32;;;;;;;6.41;100.00;101924.72;5030180;28;20492;-41
2023/02/01 01:35:12;;;;;;;62.97;5.10;;;;;;;6.37;100.00;101919.66;5027319;28;20495;-40
2023/02/01 01:37:37;;;;;;;53.33;7.20;;;;;;;6.36;100.00;101931.28;5020020;28;20037;-41
2023/02/01 01:40:04;;;;;;;63.88;5.40;;;;;;;6.32;100.00;101945.06;5009862;28;20022;-41
2023/02/01 01:42:30;;;;;;;50.33;4.65;;;;;;;6.33;100.00;101936.91;5010122;28;20034;-39
2023/02/01 01:45:03;;;;;;;50.90;4.95;;;;;;;6.33;100.00;101928.88;5026001;28;20040;-40
2023/02/01 01:47:33;;;;;;;47.33;5.50;;;;;;;6.36;100.00;101917.09;5028397;28;20111;-40
2023/02/01 01:49:59;;;;;;;50.53;6.22;;;;;;;6.36;100.00;101925.94;5028109;28;20040;-40
2023/02/01 01:52:25;;;;;;;59.75;4.72;;;;;;;6.33;100.00;101910.16;5029276;28;20708;-40
2023/02/01 01:54:53;;;;;;;49.38;5.00;;;;;;;6.34;100.00;101919.03;5028548;28;20079;-40
2023/02/01 01:57:30;;;;;;;69.97;5.97;;;;;;;6.36;100.00;101925.94;5030921;28;20496;-40
2023/02/01 02:00:02;;;;;;;53.05;5.10;;;;;;;6.38;100.00;101915.97;5032902;28;20026;-40
2023/02/01 02:02:28;;;;;;;67.50;5.05;;;;;;;6.40;100.00;101913.19;5033065;28;20497;-39
2023/02/01 02:04:53;;;;;;;62.90;5.28;;;;;;;6.42;100.00;101921.06;5030776;28;20033;-40
2023/02/01 02:07:26;;;;;;;54.10;6.80;;;;;;;6.46;100.00;101909.16;5031724;28;20484;-40
2023/02/01 02:09:52;;;;;;;42.60;4.43;;;;;;;6.45;100.00;101921.69;5033153;28;20030;-42
2023/02/01 02:12:17;;;;;;;53.90;5.55;;;;;;;6.45;100.00;101915.47;5031867;28;20429;-42
2023/02/01 02:14:43;;;;;;;52.20;5.78;;;;;;;6.46;100.00;101901.97;5019013;28;20033;-41
2023/02/01 02:17:32;;;;;;;57.08;5.25;;;;;;;6.48;100.00;101889.31;5021483;28;20101;-41
2023/02/01 02:20:25;;;;;;;51.33;5.22;;;;;;;6.47;100.00;101900.13;5032808;28;20072;-41
2023/02/01 02:23:19;;;;;;;56.80;3.92;;;;;;;6.49;100.00;101895.50;5014356;28;20044;-41
2023/02/01 02:26:06;;;;;;;72.30;5.82;;;;;;;6.50;100.00;101892.72;5014651;28;20037;-40
2023/02/01 02:28:46;;;;;;;52.97;5.03;;;;;;;6.51;100.00;101898.91;5032115;28;20071;-41
2023/02/01 02:31:41;;;;;;;60.22;5.20;;;;;;;6.50;100.00;101895.41;5031557;28;20025;-41
2023/02/01 02:34:09;;;;;;;43.70;3.75;;;;;;;6.54;100.00;101904.00;5018793;28;20489;-41
2023/02/01 02:36:50;;;;;;;51.60;5.88;;;;;;;6.54;100.00;101879.94;5015444;28;20490;-41
2023/02/01 02:39:23;;;;;;;54.92;5.18;;;;;;;6.53;100.00;101896.94;5031992;28;20275;-41
2023/02/01 02:48:05;;;;;;;42.10;4.68;;;;;;;6.62;100.00;101895.34;5019314;28;20012;-41
2023/02/01 03:04:40;;;;;;;44.20;5.13;;;;;;;6.43;100.00;101862.13;5018136;28;20037;-40
2023/02/01 03:07:34;;;;;;;64.90;5.90;;;;;;;6.38;100.00;101857.16;5020211;28;20017;-41
2023/02/01 03:10:05;;;;;;;68.10;5.60;;;;;;;6.33;100.00;101859.38;5014235;28;20113;-40
2023/02/01 03:15:22;;;;;;;41.50;5.10;;;;;;;6.25;100.00;101872.53;5032427;28;20447;-41
2023/02/01 03:17:50;;;;;;;48.17;4.78;;;;;;;6.24;100.00;101856.63;5026666;28;20112;-41
2023/02/01 03:20:19;;;;;;;45.95;6.25;;;;;;;6.27;100.00;101875.94;5012705;28;20048;-40
2023/02/01 03:22:46;;;;;;;47.13;4.82;;;;;;;6.24;100.00;101873.53;5012961;28;20389;-41
2023/02/01 03:25:15;;;;;;;50.38;4.47;;;;;;;6.24;100.00;101862.84;5031890;28;20026;-42
2023/02/01 03:27:49;;;;;;;53.78;6.50;;;;;;;6.26;100.00;101868.88;5027314;28;20408;-40
2023/02/01 03:30:25;;;;;;;67.32;6.65;;;;;;;6.28;100.00;101861.56;5011620;28;20109;-41
2023/02/01 03:33:00;;;;;;;45.90;5.00;;;;;;;6.33;100.00;101870.06;5022977;28;20092;-41
2023/02/01 03:35:28;;;;;;;47.88;5.53;;;;;;;6.35;100.00;101868.13;5010867;28;20465;-41
2023/02/01 03:37:59;;;;;;;55.53;6.05;;;;;;;6.34;100.00;101853.03;5010667;28;20025;-41
2023/02/01 03:40:25;;;;;;;63.30;5.43;;;;;;;6.34;100.00;101855.72;5010620;28;20034;-40
2023/02/01 03:42:54;;;;;;;45.05;4.72;;;;;;;6.28;100.00;101858.91;5010669;28;20041;-41
2023/02/01 03:45:42;;;;;;;44.40;4.70;;;;;;;6.26;100.00;101850.16;5012286;28;20036;-40
2023/02/01 03:48:08;;;;;;;51.80;4.85;;;;;;;6.22;100.00;101846.06;5025892;28;20025;-41
2023/02/01 03:50:36;;;;;;;50.83;5.40;;;;;;;6.21;100.00;101854.19;5029882;28;20056;-41
2023/02/01 03:53:05;;;;;;;62.38;5.07;;;;;;;6.17;100.00;101853.63;5024141;28;20030;-40
2023/02/01 03:55:31;;;;;;;44.10;5.13;;;;;;;6.21;100.00;101847.03;5019258;28;20408;-41
2023/02/01 03:58:01;;;;;;;39.30;4.40;;;;;;;6.21;100.00;101852.38;5017768;28;20040;-41
2023/02/01 04:00:27;;;;;;;59.88;6.30;;;;;;;6.24;100.00;101844.13;5027721;28;20458;-41
2023/02/01 04:02:53;;;;;;;53.67;6.28;;;;;;;6.23;100.00;101858.44;5029138;28;20060;-41
2023/02/01 04:05:19;;;;;;;45.33;4.75;;;;;;;6.22;100.00;101843.41;5027192;28;20130;-41
2023/02/01 04:07:44;;;;;;;45.60;4.72;;;;;;;6.23;100.00;101858.44;5029960;28;20030;-41
2023/02/01 04:10:10;;;;;;;52.05;5.20;;;;;;;6.27;100.00;101881.28;5019874;28;20029;-40
2023/02/01 04:12:36;;;;;;;54.60;6.60;;;;;;;6.30;100.00;101861.47;5010513;28;20025;-41
2023/02/01 04:15:02;;;;;;;54.33;4.28;;;;;;;6.32;100.00;101856.84;5011279;28;20105;-41
2023/02/01 04:17:27;;;;;;;53.20;4.40;;;;;;;6.34;100.00;101850.34;5011513;28;20117;-41
2023/02/01 04:19:53;;;;;;;46.70;4.85;;;;;;;6.35;100.00;101857.41;5030489;28;20043;-41
2023/02/01 04:22:18;;;;;;;47.33;5.45;;;;;;;6.38;100.00;101845.63;5030906;28;20552;-40
2023/02/01 04:24:43;;;;;;;58.53;5.05;;;;;;;6.43;100.00;101843.41;5030484;28;20029;-40
2023/02/01 04:27:09;;;;;;;51.42;6.15;;;;;;;6.37;100.00;101849.25;5026567;28;20026;-41
2023/02/01 04:29:34;;;;;;;54.80;5.15;;;;;;;6.31;100.00;101866.66;5021979;28;20088;-42
2023/02/01 04:31:59;;;;;;;57.78;5.22;;;;;;;6.27;100.00;101865.25;5011643;28;20131;-40
2023/02/01 04:34:25;;;;;;;55.70;5.22;;;;;;;6.22;100.00;101863.94;5013571;28;20045;-39
2023/02/01 04:36:51;;;;;;;48.17;4.10;;;;;;;6.20;100.00;101864.06;5031183;28;20028;-40
2023/02/01 04:39:16;;;;;;;58.08;6.13;;;;;;;6.14;100.00;101857.41;5017329;28;20030;-39
2023/02/01 04:41:42;;;;;;;40.67;4.25;;;;;;;6.18;100.00;101844.63;5012236;28;20102;-40
2023/02/01 04:44:12;;;;;;;38.47;4.07;;;;;;;6.18;100.00;101860.66;5017078;28;20525;-40
2023/02/01 04:46:38;;;;;;;48.97;5.00;;;;;;;6.12;100.00;101862.00;5029908;28;20431;-39
2023/02/01 04:49:03;;;;;;;45.60;4.07;;;;;;;6.13;100.00;101852.16;5028749;28;20057;-41
2023/02/01 04:51:29;;;;;;;54.10;4.75;;;;;;;6.10;100.00;101841.75;5010935;28;20461;-41
2023/02/01 04:53:55;;;;;;;52.25;6.40;;;;;;;6.07;100.00;101844.66;5011111;28;20040;-41
2023/02/01 04:56:21;;;;;;;44.53;4.60;;;;;;;6.05;100.00;101850.13;5010837;28;20034;-39
2023/02/01 04:58:46;;;;;;;45.03;4.43;;;;;;;6.01;100.00;101845.19;5010637;28;20037;-41
2023/02/01 05:01:11;;;;;;;40.45;6.00;;;;;;;5.99;100.00;101842.63;5026556;28;20392;-40
2023/02/01 05:03:37;;;;;;;49.33;4.60;;;;;;;5.99;100.00;101839.13;5030235;28;20346;-41
2023/02/01 05:06:04;;;;;;;62.50;5.70;;;;;;;5.98;100.00;101848.09;5027281;28;20381;-41
2023/02/01 05:08:30;;;;;;;50.15;5.75;;;;;;;5.91;100.00;101837.06;5024706;28;20057;-41
2023/02/01 05:10:55;;;;;;;46.30;5.43;;;;;;;5.91;100.00;101840.56;5011035;28;20477;-41
2023/02/01 05:16:05;;;;;;;51.75;4.60;;;;;;;5.90;100.00;101857.59;5014964;28;20068;-41
2023/02/01 05:18:30;;;;;;;45.58;5.72;;;;;;;5.91;100.00;101863.78;5029819;28;20480;-40
2023/02/01 05:20:56;;;;;;;45.85;5.30;;;;;;;5.90;100.00;101873.63;5023215;28;20040;-40
2023/02/01 05:23:21;;;;;;;58.47;4.72;;;;;;;5.87;100.00;101884.56;5025532;28;20032;-41
2023/02/01 05:25:46;;;;;;;58.05;6.10;;;;;;;5.88;100.00;101872.88;5020548;28;20062;-41
2023/02/01 05:28:12;;;;;;;47.00;4.93;;;;;;;5.90;100.00;101873.63;5012726;28;20065;-40
2023/02/01 05:30:37;;;;;;;44.38;4.55;;;;;;;5.91;100.00;101869.94;5032781;28;20029;-41
2023/02/01 05:33:03;;;;;;;58.50;6.18;;;;;;;5.95;100.00;101865.25;5033778;28;20052;-41
2023/02/01 05:35:28;;;;;;;58.90;4.55;;;;;;;6.02;100.00;101863.75;5034558;28;20372;-41
2023/02/01 05:37:54;;;;;;;48.97;4.90;;;;;;;6.03;100.00;101869.94;5039137;28;20025;-41
2023/02/01 05:40:19;;;;;;;49.40;4.72;;;;;;;6.03;100.00;101870.81;5022042;28;20129;-41
2023/02/01 05:42:44;;;;;;;46.35;4.78;;;;;;;6.01;100.00;101870.09;5020899;28;20109;-41
2023/02/01 05:45:10;;;;;;;42.72;4.90;;;;;;;6.00;100.00;101867.53;5027503;28;20025;-41
2023/02/01 05:47:35;;;;;;;47.65;5.50;;;;;;;5.99;100.00;101873.84;5020068;28;20587;-42
2023/02/01 05:50:01;;;;;;;54.55;5.40;;;;;;;5.94;100.00;101875.06;5015385;28;20481;-40
2023/02/01 05:52:26;;;;;;;49.50;5.85;;;;;;;5.93;100.00;101870.72;5014553;28;20080;-42
2023/02/01 05:54:52;;;;;;;55.40;5.57;;;;;;;5.95;100.00;101875.94;5032084;28;20033;-41
2023/02/01 05:57:17;;;;;;;47.47;5.32;;;;;;;5.92;100.00;101877.00;5024189;28;20403;-42
2023/02/01 05:59:45;;;;;;;35.10;4.40;;;;;;;5.89;100.00;101879.91;5030012;28;20112;-40
2023/02/01 06:02:11;;;;;;;40.78;4.90;;;;;;;5.90;100.00;101878.97;5031611;28;20044;-41
2023/02/01 06:04:37;;;;;;;46.25;4.88;;;;;;;5.92;100.00;101885.03;5033698;28;20055;-40
2023/02/01 06:07:02;;;;;;;46.63;4.53;;;;;;;5.94;100.00;101885.75;5033369;28;20037;-40
2023/02/01 06:09:28;;;;;;;58.60;5.57;;;;;;;5.97;100.00;101879.31;5032868;28;20481;-40
2023/02/01 06:11:53;;;;;;;38.83;3.88;;;;;;;6.03;100.00;101877.97;5033836;28;20117;-40
2023/02/01 06:14:19;;;;;;;38.10;4.25;;;;;;;6.04;100.00;101879.66;5032783;28;20124;-41
2023/02/01 06:16:46;;;;;;;52.20;5.32;;;;;;;6.09;100.00;101880.16;5027458;28;20038;-42
2023/02/01 06:19:12;;;;;;;47.25;5.13;;;;;;;6.11;100.00;101880.88;5031977;28;20029;-41
2023/02/01 06:21:37;;;;;;;42.45;4.18;;;;;;;6.17;100.00;101869.66;5022167;28;20013;-41
2023/02/01 06:24:03;;;;;;;48.08;4.32;;;;;;;6.15;100.00;101883.13;5033266;28;20095;-41
2023/02/01 06:26:28;;;;;;;52.80;5.13;;;;;;;6.16;100.00;101873.28;5022494;28;20033;-40
2023/02/01 06:28:55;;;;;;;48.65;6.28;;;;;;;6.16;100.00;101878.63;5013550;28;20018;-41
2023/02/01 06:31:20;;;;;;;34.97;3.97;;;;;;;6.19;100.00;101873.06;5017740;28;20030;-42
2023/02/01 06:33:47;;;;;;;43.17;4.40;;;;;;;6.18;100.00;101870.50;5032967;28;20476;-41
2023/02/01 06:36:12;;;;;;;57.40;5.72;;;;;;;6.15;100.00;101872.44;5033990;28;20136;-41
2023/02/01 06:38:38;;;;;;;45.92;4.20;;;;;;;6.14;100.00;101883.28;5034005;28;20524;-40
2023/02/01 06:41:04;;;;;;;42.78;5.35;;;;;;;6.13;100.00;101873.56;5032625;28;20033;-42
2023/02/01 06:43:32;;;;;;;50.70;4.57;;;;;;;6.12;100.00;101882.56;5030763;28;20040;-41
2023/02/01 06:46:03;;;;;;;35.22;4.07;;;;;;;6.12;100.00;101877.22;5033282;28;20113;-42
2023/02/01 06:48:28;;;;;;;34.10;4.15;;;;;;;6.08;100.00;101873.09;5032555;28;20112;-42
2023/02/01 06:50:54;;;;;;;44.38;5.18;;;;;;;6.08;100.00;101875.75;5018805;28;20117;-41
2023/02/01 06:53:19;;;;;;;49.13;4.70;;;;;;;6.07;100.00;101876.75;5012843;28;20072;-41
2023/02/01 06:55:55;;;;;;;54.05;6.20;;;;;;;6.08;100.00;101878.44;5020868;28;20037;-41
2023/02/01 06:58:21;;;;;;;53.67;4.47;;;;;;;6.06;100.00;101862.53;5032829;28;20022;-43
2023/02/01 07:00:46;;;;;;;45.28;4.68;;;;;;;6.06;100.00;101873.22;5032123;28;20048;-41
2023/02/01 07:03:12;;;;;;;48.97;6.10;;;;;;;6.06;100.00;101872.38;5021858;28;20030;-41
2023/02/01 07:05:37;;;;;;;39.70;3.85;;;;;;;6.08;100.00;101881.09;5012612;28;20022;-41
2023/02/01 07:08:02;;;;;;;56.88;6.13;;;;;;;6.09;100.00;101880.16;5012741;28;20021;-41
2023/02/01 07:10:28;;;;;;;39.00;5.93;;;;;;;6.09;100.00;101882.81;5024059;28;20029;-40
2023/02/01 07:12:57;;;;;;;37.60;4.32;;;;;;;6.10;100.00;101879.16;5032355;28;20041;-43
2023/02/01 07:15:22;;;;;;;36.33;4.88;;;;;;;6.11;100.00;101888.88;5029983;28;20037;-40
2023/02/01 07:17:48;;;;;;;43.83;4.50;;;;;;;6.14;100.00;101896.66;5012759;28;20028;-41
2023/02/01 07:20:14;;;;;;;41.17;4.95;;;;;;;6.19;100.00;101894.44;5017115;28;20048;-42
2023/02/01 07:22:40;;;;;;;53.15;4.60;;;;;;;6.15;100.00;101883.13;5027795;28;20037;-42
2023/02/01 07:25:05;;;;;;;37.13;5.35;;;;;;;6.18;100.00;101887.38;5033375;28;20035;-40
2023/02/01 07:27:34;;;;;;;53.33;5.55;;;;;;;6.20;100.00;101890.78;5033769;28;20121;-41
2023/02/01 07:30:01;;;;;;;47.10;5.00;;;;;;;6.17;100.00;101899.06;5033498;28;20523;-41
2023/02/01 07:32:27;;;;;;;38.55;4.15;;;;;;;6.15;100.00;101896.50;5030779;28;20045;-43
2023/02/01 07:34:52;;;;;;;56.28;4.97;;;;;;;6.19;100.00;101899.78;5021461;28;20034;-41
2023/02/01 07:37:18;;;;;;;30.40;4.07;;;;;;;6.18;100.00;101908.75;5022041;28;20025;-41
2023/02/01 07:39:43;;;;;;;59.30;5.43;;;;;;;6.18;100.00;101902.56;5025451;28;20022;-42
2023/02/01 07:42:09;;;;;;;36.25;4.88;;;;;;;6.16;100.00;101905.38;5019779;28;20836;-41
2023/02/01 07:44:34;;;;;;;40.42;4.80;;;;;;;6.22;100.00;101914.72;5028086;28;20096;-41
2023/02/01 07:47:00;;;;;;;52.53;5.53;;;;;;;6.18;100.00;101923.97;5031220;28;20116;-41
2023/02/01 07:49:25;;;;;;;44.25;5.63;;;;;;;6.20;100.00;101922.84;5028326;28;20021;-39
2023/02/01 07:51:50;;;;;;;49.22;4.88;;;;;;;6.21;100.00;101935.25;5030917;28;20438;-41
2023/02/01 07:54:16;;;;;;;45.75;4.72;;;;;;;6.22;100.00;101936.97;5029320;28;20041;-40
2023/02/01 07:56:41;;;;;;;68.53;5.35;;;;;;;6.24;100.00;101929.66;5029216;28;20032;-42
2023/02/01 07:59:07;;;;;;;48.45;4.53;;;;;;;6.25;100.00;101935.84;5031094;28;20033;-41
2023/02/01 08:01:32;;;;;;;45.35;4.43;;;;;;;6.23;100.00;101911.91;5020982;28;20018;-40
2023/02/01 08:03:59;;;;;;;46.45;4.78;;;;;;;6.26;100.00;101924.16;5028211;28;20030;-41
2023/02/01 08:06:25;;;;;;;39.00;5.40;;;;;;;6.27;100.00;101912.53;5018773;28;20068;-40
2023/02/01 08:08:52;;;;;;;57.67;6.75;;;;;;;6.33;100.00;101918.19;5031609;28;20421;-41
2023/02/01 08:11:18;;;;;;;47.47;4.70;;;;;;;6.42;100.00;101918.41;5022181;28;20037;-42
2023/02/01 08:13:43;;;;;;;46.78;4.68;;;;;;;6.48;100.00;101907.19;5031561;28;20045;-40
2023/02/01 08:16:10;;;;;;;47.95;4.53;;;;;;;6.58;100.00;101911.66;5031929;28;20026;-41
2023/02/01 08:18:37;;;;;;;50.97;5.70;;;;;;;6.70;100.00;101909.75;5030144;28;20030;-43
2023/02/01 08:21:08;;;;;;;35.15;3.70;;;;;;;6.82;100.00;101908.72;5028410;28;20121;-41
2023/02/01 08:23:34;;;;;;;39.53;4.60;;;;;;;6.89;100.00;101887.59;5023712;28;20049;-42
2023/02/01 08:26:07;;;;;;;44.20;4.72;;;;;;;7.01;100.00;101891.91;5031384;28;20060;-41
2023/02/01 08:28:32;;;;;;;49.70;4.78;;;;;;;7.15;100.00;101887.19;5030816;28;20113;-42
2023/02/01 08:30:57;;;;;;;50.67;4.45;;;;;;;7.12;100.00;101877.59;5022080;28;20109;-41
2023/02/01 08:33:23;;;;;;;42.33;4.90;;;;;;;7.11;100.00;101881.25;5025455;28;20138;-42
2023/02/01 08:35:48;;;;;;;51.65;5.38;;;;;;;7.13;100.00;101887.31;5027627;28;20033;-41
2023/02/01 08:38:13;;;;;;;50.72;5.15;;;;;;;7.04;100.00;101894.31;5030487;28;20470;-40
2023/02/01 08:40:41;;;;;;;47.65;4.50;;;;;;;7.09;100.00;101885.88;5018785;28;20502;-42
2023/02/01 08:43:06;;;;;;;43.60;4.53;;;;;;;7.02;100.00;101888.22;5025111;28;20018;-40
2023/02/01 08:45:32;;;;;;;60.45;5.88;;;;;;;7.07;100.00;101889.69;5031311;28;20044;-40
2023/02/01 08:47:57;;;;;;;54.60;5.65;;;;;;;7.11;100.00;101886.59;5031024;28;20077;-41
2023/02/01 08:50:24;;;;;;;47.72;5.25;;;;;;;7.18;100.00;101882.41;5031058;28;20124;-40
2023/02/01 08:52:49;;;;;;;48.50;5.82;;;;;;;7.25;100.00;101885.41;5029309;28;20030;-40
2023/02/01 08:55:15;;;;;;;41.05;4.35;;;;;;;7.41;100.00;101871.50;5030699;28;20392;-41
2023/02/01 08:57:41;;;;;;;52.35;5.40;;;;;;;7.56;100.00;101866.63;5030701;28;20087;-41
2023/02/01 09:00:09;;;;;;;44.80;5.45;;;;;;;7.83;100.00;101874.84;5029794;28;20021;-41
2023/02/01 09:02:35;;;;;;;55.10;5.35;;;;;;;7.94;100.00;101856.94;5024406;28;20030;-41
2023/02/01 09:05:00;;;;;;;49.05;5.45;;;;;;;8.12;100.00;101856.09;5015139;28;20103;-40
2023/02/01 09:07:26;;;;;;;61.15;5.00;;;;;;;8.11;100.00;101854.41;5012055;28;20116;-41
2023/02/01 09:09:52;;;;;;;49.08;5.13;;;;;;;7.91;100.00;101868.78;5011363;28;20432;-41
2023/02/01 09:12:17;;;;;;;44.45;4.55;;;;;;;7.83;100.00;101861.44;5014901;28;20021;-41
2023/02/01 09:14:43;;;;;;;51.17;5.35;;;;;;;7.62;100.00;101864.22;5031184;28;20075;-42
2023/02/01 09:17:08;;;;;;;42.67;4.40;;;;;;;7.54;100.00;101858.72;5027964;28;20048;-41
2023/02/01 09:19:34;;;;;;;48.45;5.07;;;;;;;7.42;100.00;101867.81;5027832;28;20094;-41
2023/02/01 09:21:59;;;;;;;57.22;5.07;;;;;;;7.32;100.00;101864.25;5029859;28;20349;-41
2023/02/01 09:24:24;;;;;;;53.47;4.55;;;;;;;7.18;100.00;101876.19;5017930;28;20164;-41
2023/02/01 09:26:50;;;;;;;52.03;4.57;;;;;;;7.10;100.00;101871.50;5010801;28;20026;-41
2023/02/01 09:29:16;;;;;;;45.47;4.97;;;;;;;7.17;100.00;101875.34;5025332;28;20370;-42
2023/02/01 09:31:41;;;;;;;56.10;5.10;;;;;;;7.21;100.00;101876.78;5029246;28;20100;-42
2023/02/01 09:34:08;;;;;;;66.30;5.57;;;;;;;7.18;100.00;101877.03;5028383;28;20083;-42
2023/02/01 09:36:34;;;;;;;45.45;4.35;;;;;;;7.36;100.00;101879.94;5016042;28;20412;-41
2023/02/01 09:39:00;;;;;;;42.28;5.20;;;;;;;7.38;100.00;101877.13;5029888;28;20432;-41
2023/02/01 09:41:40;;;;;;;57.53;5.90;;;;;;;7.40;100.00;101870.66;5030322;28;20048;-41
2023/02/01 09:44:19;;;;;;;50.10;4.85;;;;;;;7.42;100.00;101878.53;5029925;28;20033;-40
2023/02/01 09:46:45;;;;;;;57.20;5.72;;;;;;;7.39;100.00;101887.69;5017223;28;20045;-41
2023/02/01 09:49:18;;;;;;;58.88;6.75;;;;;;;7.26;100.00;101890.59;5030028;28;20037;-41
2023/02/01 09:51:46;;;;;;;56.30;5.18;;;;;;;7.26;100.00;101890.59;5029910;28;20028;-41
2023/02/01 09:54:29;;;;;;;56.85;5.40;;;;;;;7.29;100.00;101894.00;5014732;28;20386;-41
2023/02/01 09:57:04;;;;;;;50.67;6.50;;;;;;;7.20;100.00;101880.44;5027819;28;20033;-42
2023/02/01 09:59:33;;;;;;;59.08;5.85;;;;;;;7.18;100.00;101882.41;5024117;28;20087;-43
2023/02/01 10:01:59;;;;;;;54.60;4.68;;;;;;;7.09;100.00;101877.84;5016450;28;20049;-39
2023/02/01 10:04:25;;;;;;;50.80;4.30;;;;;;;7.06;100.00;101883.50;5010311;28;20454;-41
2023/02/01 10:07:05;;;;;;;51.70;5.95;;;;;;;7.00;100.00;101889.34;5010065;28;20026;-42
2023/02/01 10:09:48;;;;;;;65.20;5.50;;;;;;;6.98;100.00;101907.41;5009920;28;20041;-42
2023/02/01 10:12:55;;;;;;;41.05;4.63;;;;;;;6.99;100.00;101893.03;5018628;28;20036;-42
2023/02/01 10:16:03;;;;;;;53.03;5.25;;;;;;;7.01;100.00;101893.75;4969311;28;20117;-42
2023/02/01 10:18:53;;;;;;;45.20;4.60;;;;;;;7.04;100.00;101901.50;4928470;29;20039;-41
2023/02/01 10:21:22;;;;;;;52.63;5.68;;;;;;;7.01;100.00;101891.06;5023433;28;20041;-40
2023/02/01 10:24:12;;;;;;;59.25;5.20;;;;;;;7.03;100.00;101894.47;5032394;28;20117;-39
2023/02/01 10:26:45;;;;;;;49.55;4.68;;;;;;;7.08;100.00;101897.56;5032499;28;20034;-41
2023/02/01 10:29:16;;;;;;;46.00;4.85;;;;;;;7.16;100.00;101899.56;5028951;28;20033;-41
2023/02/01 10:31:42;;;;;;;55.58;5.82;;;;;;;7.26;100.00;101892.44;5012665;28;20056;-40
2023/02/01 10:34:18;;;;;;;45.03;4.57;;;;;;;7.22;100.00;101894.53;5012959;28;20030;-41
2023/02/01 10:37:19;;;;;;;59.40;5.10;;;;;;;7.30;100.00;101887.69;5018713;28;20457;-41
2023/02/01 10:39:47;;;;;;;60.10;4.97;;;;;;;7.27;100.00;101896.81;5013434;28;20048;-40
2023/02/01 10:42:12;;;;;;;57.20;4.88;;;;;;;7.26;100.00;101887.91;5033061;28;20060;-41
2023/02/01 10:44:43;;;;;;;56.25;5.47;;;;;;;7.34;100.00;101875.69;5031268;28;20385;-40
2023/02/01 10:47:09;;;;;;;57.88;5.15;;;;;;;7.38;100.00;101869.94;5030525;28;20036;-41
2023/02/01 10:49:47;;;;;;;65.65;5.85;;;;;;;7.44;100.00;101864.03;5031491;28;20032;-41
2023/02/01 10:52:19;;;;;;;51.42;5.72;;;;;;;7.53;100.00;101875.78;5032120;28;20040;-41
2023/02/01 10:54:44;;;;;;;41.75;4.97;;;;;;;7.58;100.00;101865.50;5029342;28;20037;-41
2023/02/01 10:57:20;;;;;;;52.47;5.22;;;;;;;7.56;100.00;101859.44;5031984;28;20135;-41
2023/02/01 10:59:45;;;;;;;39.13;4.63;;;;;;;7.53;100.00;101890.97;5016984;28;20036;-40
2023/02/01 11:02:29;;;;;;;43.33;4.30;;;;;;;7.49;100.00;101871.66;5032165;28;20021;-41
2023/02/01 11:05:04;;;;;;;44.50;4.22;;;;;;;7.54;100.00;101872.09;5031465;28;20026;-40
2023/02/01 11:07:30;;;;;;;55.03;6.03;;;;;;;7.65;100.00;101863.94;5014551;28;20460;-41
2023/02/01 11:09:56;;;;;;;47.40;5.88;;;;;;;7.69;100.00;101861.84;5029535;28;20033;-41
2023/02/01 11:12:37;;;;;;;48.75;4.85;;;;;;;7.81;100.00;101865.25;5026389;28;20152;-40
2023/02/01 11:15:18;;;;;;;42.95;4.78;;;;;;;7.75;100.00;101852.41;5024786;28;20037;-42
2023/02/01 11:17:46;;;;;;;48.95;4.32;;;;;;;7.73;100.00;101849.00;5027833;28;20326;-41
2023/02/01 11:20:20;;;;;;;47.28;4.57;;;;;;;7.72;100.00;101863.41;5038662;28;20108;-41
2023/02/01 11:22:53;;;;;;;40.92;5.15;;;;;;;7.65;100.00;101863.09;5028354;28;20485;-41
2023/02/01 11:25:18;;;;;;;75.10;5.28;;;;;;;7.65;100.00;101863.94;5019063;28;20420;-42
2023/02/01 11:27:44;;;;;;;62.75;6.60;;;;;;;7.72;100.00;101866.09;5015452;28;20026;-42
2023/02/01 11:30:16;;;;;;;43.03;6.03;;;;;;;7.79;100.00;101867.22;5017995;28;20057;-42
2023/02/01 11:32:42;;;;;;;46.92;4.97;;;;;;;7.81;100.00;101873.28;5019791;28;20061;-41
2023/02/01 11:35:13;;;;;;;43.05;4.55;;;;;;;7.77;100.00;101861.16;5025961;28;20457;-41
2023/02/01 11:37:41;;;;;;;47.55;4.53;;;;;;;7.81;100.00;101873.28;5023391;28;20052;-43
2023/02/01 11:40:15;;;;;;;45.65;4.53;;;;;;;7.83;100.00;101868.66;5011888;28;20075;-42
2023/02/01 11:43:16;;;;;;;58.25;5.65;;;;;;;7.84;100.00;101860.44;5012895;28;20121;-41
2023/02/01 11:45:57;;;;;;;51.63;6.13;;;;;;;7.80;100.00;101867.09;5013593;28;20029;-41
2023/02/01 11:48:24;;;;;;;53.25;7.47;;;;;;;7.80;100.00;101866.25;5021048;28;20219;-41